Wellington, Colorado
Current Conditions -  °F | °C
As of 6:35 PM on Saturday 20 Dec 2014 (Local Time) from KFNL Reporting Station
Clear Clear  
Wind Chill: 32°   Ceiling: Unl
Heat Index: 36°   Visibility: 10mi
Dew Point: 19°   Wind: 5mph
Humidity: 52%   Direction: 330°NNW
Pressure: 29.97"   Gusts: NA
Location:  40.7°N, 105.01°W
Report Text: KFNL 210135Z AUTO 33004KT 10SM CLR 02/M07 A2997 RMK AO1
Loading
Personal Weather Stations






























Interactive Weather Map New forecast layout! Learn more

10-Day Weather Forecast

Advertisements
Track Severe Weather on mobile